createdAt,value
2019-03-23T00:00:13.019Z,58.00
2019-03-23T00:02:44.941Z,57.90
2019-03-23T00:05:15.899Z,58.00
2019-03-23T00:07:46.193Z,57.80
2019-03-23T00:10:16.784Z,57.80
2019-03-23T00:12:47.411Z,57.90
2019-03-23T00:15:17.785Z,57.70
2019-03-23T00:17:48.052Z,57.80
2019-03-23T00:20:18.267Z,57.60
2019-03-23T00:22:48.511Z,57.80
2019-03-23T00:25:18.771Z,57.60
2019-03-23T00:27:49.020Z,57.80
2019-03-23T00:30:19.320Z,57.90
2019-03-23T00:32:49.580Z,57.80
2019-03-23T00:35:19.888Z,58.00
2019-03-23T00:37:50.125Z,58.10
2019-03-23T00:40:20.424Z,58.10
2019-03-23T00:42:50.686Z,58.80
2019-03-23T00:45:20.925Z,58.40
2019-03-23T00:47:51.155Z,58.20
2019-03-23T00:50:21.459Z,58.50
2019-03-23T00:52:51.706Z,58.60
2019-03-23T00:55:22.005Z,58.50
2019-03-23T00:57:52.304Z,58.70
2019-03-23T01:00:22.678Z,59.00
2019-03-23T01:02:53.074Z,59.00
2019-03-23T01:05:23.320Z,59.20
2019-03-23T01:07:53.749Z,59.10
2019-03-23T01:10:23.971Z,59.30
2019-03-23T01:12:55.220Z,59.40
2019-03-23T01:15:25.454Z,59.40
2019-03-23T01:17:55.698Z,59.90
2019-03-23T01:20:25.964Z,60.20
2019-03-23T01:22:56.211Z,60.40
2019-03-23T01:25:26.584Z,60.70
2019-03-23T01:27:56.819Z,60.80
2019-03-23T01:30:27.048Z,61.10
2019-03-23T01:32:59.493Z,61.10
2019-03-23T01:35:29.713Z,61.20
2019-03-23T01:37:59.959Z,61.50
2019-03-23T01:40:30.177Z,61.50
2019-03-23T01:43:00.407Z,61.60
2019-03-23T01:45:30.720Z,61.60
2019-03-23T01:48:00.959Z,62.10
2019-03-23T01:50:31.198Z,62.20
2019-03-23T01:53:01.408Z,62.30
2019-03-23T01:55:31.683Z,62.40
2019-03-23T01:58:01.988Z,62.50
2019-03-23T02:00:32.236Z,62.80
2019-03-23T02:03:02.539Z,63.10
2019-03-23T02:05:32.778Z,63.10
2019-03-23T02:08:03.001Z,63.10
2019-03-23T02:10:33.247Z,63.60
2019-03-23T02:13:03.487Z,63.70
2019-03-23T02:15:33.718Z,63.80
2019-03-23T02:18:04.961Z,63.80
2019-03-23T02:20:35.723Z,64.00
2019-03-23T02:23:06.046Z,63.80
2019-03-23T02:25:36.385Z,63.70
2019-03-23T02:28:06.640Z,63.60
2019-03-23T02:30:36.967Z,63.80
2019-03-23T02:33:07.221Z,63.30
2019-03-23T02:35:37.607Z,63.20
2019-03-23T02:38:07.866Z,63.10
2019-03-23T02:40:38.197Z,63.20
2019-03-23T02:43:08.448Z,63.20
2019-03-23T02:45:38.792Z,63.30
2019-03-23T02:48:09.051Z,63.40
2019-03-23T02:50:39.329Z,63.40
2019-03-23T02:53:09.602Z,63.50
2019-03-23T02:55:41.060Z,63.40
2019-03-23T02:58:11.325Z,63.50
2019-03-23T03:00:41.732Z,63.50
2019-03-23T03:03:12.000Z,63.50
2019-03-23T03:05:42.265Z,63.40
2019-03-23T03:08:12.597Z,63.60
2019-03-23T03:10:43.337Z,63.80
2019-03-23T03:13:13.581Z,63.50
2019-03-23T03:15:43.916Z,63.70
2019-03-23T03:18:14.184Z,63.80
2019-03-23T03:20:44.435Z,64.00
2019-03-23T03:23:34.720Z,64.10
2019-03-23T03:26:06.298Z,63.50
2019-03-23T03:28:36.554Z,64.10
2019-03-23T03:31:06.819Z,64.20
2019-03-23T03:33:37.167Z,64.30
2019-03-23T03:36:07.581Z,64.30
2019-03-23T03:38:37.834Z,64.30
2019-03-23T03:41:08.192Z,64.50
2019-03-23T03:43:38.450Z,64.50
2019-03-23T03:46:08.786Z,64.60
2019-03-23T03:48:39.036Z,64.70
2019-03-23T03:51:12.162Z,64.60
2019-03-23T03:53:42.499Z,64.90
2019-03-23T03:56:12.907Z,65.00
2019-03-23T03:58:43.146Z,65.00
2019-03-23T04:01:13.409Z,65.20
2019-03-23T04:03:43.657Z,65.20
2019-03-23T04:06:13.913Z,65.30
2019-03-23T04:08:44.151Z,65.40
2019-03-23T04:11:14.489Z,65.20
2019-03-23T04:13:44.864Z,65.60
2019-03-23T04:16:15.139Z,65.10
2019-03-23T04:18:47.537Z,65.10
2019-03-23T04:21:17.796Z,65.10
2019-03-23T04:23:48.045Z,65.20
2019-03-23T04:26:19.238Z,65.20
2019-03-23T04:28:49.485Z,65.30
2019-03-23T04:31:19.786Z,65.10
2019-03-23T04:33:50.057Z,65.10
2019-03-23T04:36:20.313Z,65.00
2019-03-23T04:38:50.576Z,65.00
2019-03-23T04:41:20.829Z,65.00
2019-03-23T04:43:51.102Z,64.90
2019-03-23T04:46:21.399Z,64.90
2019-03-23T04:48:51.744Z,64.80
2019-03-23T04:51:21.989Z,64.90
2019-03-23T04:53:52.248Z,64.90
2019-03-23T04:56:22.553Z,65.10
2019-03-23T04:58:52.807Z,65.10
2019-03-23T05:01:23.040Z,65.10
2019-03-23T05:03:53.312Z,64.80
2019-03-23T05:06:23.605Z,65.20
2019-03-23T05:08:53.858Z,65.00
2019-03-23T05:11:24.196Z,65.90
2019-03-23T05:13:54.456Z,65.00
2019-03-23T05:16:24.772Z,65.20
2019-03-23T05:18:55.029Z,65.30
2019-03-23T05:21:25.272Z,65.20
2019-03-23T05:23:55.632Z,65.20
2019-03-23T05:26:25.958Z,65.40
2019-03-23T05:28:56.220Z,65.30
2019-03-23T05:31:26.624Z,65.30
2019-03-23T05:33:56.897Z,65.40
2019-03-23T05:36:27.152Z,65.50
2019-03-23T05:38:57.423Z,65.40
2019-03-23T05:41:27.848Z,64.80
2019-03-23T05:43:58.100Z,65.50
2019-03-23T05:46:28.357Z,65.80
2019-03-23T05:48:58.704Z,65.60
2019-03-23T05:51:28.945Z,65.70
2019-03-23T05:53:59.187Z,66.00
2019-03-23T05:56:29.511Z,66.20
2019-03-23T05:58:59.816Z,66.10
2019-03-23T06:01:31.160Z,66.30
2019-03-23T06:04:01.727Z,66.10
2019-03-23T06:06:31.987Z,66.20
2019-03-23T06:09:02.237Z,66.40
2019-03-23T06:11:33.651Z,66.40
2019-03-23T06:14:04.054Z,66.50
2019-03-23T06:16:34.312Z,66.40
2019-03-23T06:19:04.628Z,66.50
2019-03-23T06:21:34.909Z,66.50
2019-03-23T06:24:05.384Z,66.70
2019-03-23T06:26:35.654Z,66.70
2019-03-23T06:29:05.988Z,66.80
2019-03-23T06:31:36.271Z,66.60
2019-03-23T06:34:06.598Z,66.90
2019-03-23T06:36:36.851Z,66.90
2019-03-23T06:39:08.028Z,66.90
2019-03-23T06:41:38.336Z,66.90
2019-03-23T06:44:08.590Z,66.80
2019-03-23T06:46:38.850Z,66.80
2019-03-23T06:49:09.263Z,66.60
2019-03-23T06:51:39.515Z,66.60
2019-03-23T06:54:09.771Z,66.50
2019-03-23T06:56:40.040Z,66.60
2019-03-23T06:59:10.284Z,66.60
2019-03-23T07:01:40.561Z,66.60
2019-03-23T07:04:10.808Z,66.60
2019-03-23T07:06:42.127Z,66.60
2019-03-23T07:09:16.473Z,66.50
2019-03-23T07:11:44.395Z,66.50
2019-03-23T07:14:14.647Z,66.70
2019-03-23T07:16:44.973Z,67.50
2019-03-23T07:19:15.320Z,67.30
2019-03-23T07:21:45.576Z,66.50
2019-03-23T07:24:15.823Z,66.40
2019-03-23T07:26:46.147Z,66.20
2019-03-23T07:29:16.392Z,66.00
2019-03-23T07:31:46.736Z,65.90
2019-03-23T07:34:17.028Z,65.90
2019-03-23T07:36:47.322Z,66.00
2019-03-23T07:39:26.762Z,65.80
2019-03-23T07:41:49.657Z,65.90
2019-03-23T07:44:20.025Z,65.80
2019-03-23T07:46:50.407Z,65.90
2019-03-23T07:49:20.676Z,66.00
2019-03-23T07:51:50.933Z,65.60
2019-03-23T07:54:21.216Z,65.80
2019-03-23T07:56:51.571Z,65.60
2019-03-23T07:59:21.880Z,65.50
2019-03-23T08:01:52.237Z,65.60
2019-03-23T08:04:22.498Z,65.60
2019-03-23T08:06:52.756Z,65.80
2019-03-23T08:09:23.621Z,65.70
2019-03-23T08:11:54.124Z,65.50
2019-03-23T08:14:24.393Z,65.50
2019-03-23T08:16:54.650Z,65.50
2019-03-23T08:19:25.253Z,65.70
2019-03-23T08:21:55.512Z,65.60
2019-03-23T08:24:26.756Z,65.50
2019-03-23T08:26:57.005Z,65.30
2019-03-23T08:29:27.272Z,65.30
2019-03-23T08:31:57.509Z,65.30
2019-03-23T08:34:29.207Z,64.90
2019-03-23T08:36:59.451Z,64.80
2019-03-23T08:39:29.702Z,64.50
2019-03-23T08:42:00.089Z,64.60
2019-03-23T08:44:31.652Z,64.40
2019-03-23T08:47:02.024Z,64.90
2019-03-23T08:49:32.304Z,65.20
2019-03-23T08:52:02.708Z,65.00
2019-03-23T08:54:32.963Z,64.40
2019-03-23T08:57:04.360Z,63.90
2019-03-23T08:59:34.604Z,62.80
2019-03-23T09:02:04.937Z,62.10
2019-03-23T09:04:35.182Z,61.60
2019-03-23T09:07:05.487Z,61.30
2019-03-23T09:09:35.731Z,61.20
2019-03-23T09:12:06.355Z,60.60
2019-03-23T09:14:36.694Z,60.30
2019-03-23T09:17:07.139Z,59.90
2019-03-23T09:19:37.385Z,59.80
2019-03-23T09:22:07.701Z,59.60
2019-03-23T09:24:37.960Z,59.20
2019-03-23T09:27:08.221Z,59.00
2019-03-23T09:29:38.484Z,58.80
2019-03-23T09:32:08.821Z,58.80
2019-03-23T09:34:39.058Z,58.80
2019-03-23T09:37:09.377Z,58.70
2019-03-23T09:39:39.705Z,58.50
2019-03-23T09:42:09.956Z,58.50
2019-03-23T09:44:40.214Z,58.30
2019-03-23T09:47:10.608Z,58.80
2019-03-23T09:49:40.850Z,58.50
2019-03-23T09:52:11.108Z,58.60
2019-03-23T09:54:41.359Z,58.40
2019-03-23T09:57:12.568Z,58.80
2019-03-23T09:59:42.825Z,58.70
2019-03-23T10:02:14.197Z,58.60
2019-03-23T10:04:44.452Z,58.50
2019-03-23T10:07:14.699Z,58.50
2019-03-23T10:09:45.003Z,58.60
2019-03-23T10:12:15.303Z,58.40
2019-03-23T10:14:45.604Z,58.40
2019-03-23T10:17:15.864Z,57.80
2019-03-23T10:19:46.173Z,57.80
2019-03-23T10:22:16.425Z,58.10
2019-03-23T10:24:46.847Z,57.70
2019-03-23T10:27:17.109Z,57.50
2019-03-23T10:29:47.431Z,57.20
2019-03-23T10:32:18.114Z,57.20
2019-03-23T10:34:48.388Z,56.70
2019-03-23T10:37:18.722Z,56.30
2019-03-23T10:39:49.042Z,55.80
2019-03-23T10:42:19.307Z,55.40
2019-03-23T10:44:49.561Z,55.30
2019-03-23T10:47:21.256Z,54.90
2019-03-23T10:49:51.544Z,54.60
2019-03-23T10:52:21.857Z,54.50
2019-03-23T10:54:53.063Z,54.40
2019-03-23T10:57:23.349Z,54.40
2019-03-23T10:59:53.584Z,54.60
2019-03-23T11:02:23.852Z,54.80
2019-03-23T11:04:54.097Z,55.00
2019-03-23T11:07:24.424Z,55.10
2019-03-23T11:09:54.678Z,55.00
2019-03-23T11:12:25.012Z,55.20
2019-03-23T11:14:55.337Z,55.40
2019-03-23T11:17:25.670Z,55.70
2019-03-23T11:19:56.023Z,55.60
2019-03-23T11:22:26.312Z,56.00
2019-03-23T11:24:57.830Z,55.80
2019-03-23T11:27:28.099Z,55.80
2019-03-23T11:29:58.418Z,55.80
2019-03-23T11:32:28.688Z,55.90
2019-03-23T11:34:59.000Z,56.20
2019-03-23T11:37:29.468Z,56.30
2019-03-23T11:39:59.780Z,56.50
2019-03-23T11:42:31.184Z,56.80
2019-03-23T11:45:01.530Z,56.70
2019-03-23T11:47:31.793Z,56.80
2019-03-23T11:50:02.098Z,56.90
2019-03-23T11:52:32.388Z,56.90
2019-03-23T11:55:02.713Z,56.70
2019-03-23T11:57:32.984Z,56.50
2019-03-23T12:00:03.438Z,56.40
2019-03-23T12:02:34.024Z,56.70
2019-03-23T12:05:05.148Z,56.50
2019-03-23T12:07:35.427Z,56.80
2019-03-23T12:10:07.491Z,56.70
2019-03-23T12:12:37.813Z,56.90
2019-03-23T12:15:08.810Z,56.60
2019-03-23T12:17:39.158Z,56.50
2019-03-23T12:20:10.416Z,56.30
2019-03-23T12:22:40.818Z,56.50
2019-03-23T12:25:11.795Z,56.20
2019-03-23T12:27:42.145Z,56.20
2019-03-23T12:30:14.543Z,56.30
2019-03-23T12:32:44.975Z,56.20
2019-03-23T12:35:15.319Z,56.10
2019-03-23T12:37:46.012Z,56.30
2019-03-23T12:40:16.350Z,56.50
2019-03-23T12:42:46.673Z,56.60
2019-03-23T12:45:17.004Z,56.50
2019-03-23T12:47:47.376Z,56.30
2019-03-23T12:50:17.683Z,56.50
2019-03-23T12:52:48.045Z,56.50
2019-03-23T12:55:18.429Z,56.30
2019-03-23T12:57:48.685Z,56.70
2019-03-23T13:00:20.189Z,57.00
2019-03-23T13:02:50.452Z,56.80
2019-03-23T13:05:20.905Z,56.70
2019-03-23T13:07:51.132Z,56.60
2019-03-23T13:10:21.396Z,56.70
2019-03-23T13:12:51.644Z,57.30
2019-03-23T13:15:21.908Z,57.90
2019-03-23T13:17:52.168Z,57.10
2019-03-23T13:20:22.487Z,57.10
2019-03-23T13:22:52.900Z,57.50
2019-03-23T13:25:23.296Z,56.60
2019-03-23T13:27:53.548Z,57.10
2019-03-23T13:30:24.103Z,57.20
2019-03-23T13:32:54.364Z,57.10
2019-03-23T13:35:25.314Z,57.10
2019-03-23T13:37:55.637Z,57.00
2019-03-23T13:40:25.914Z,57.10
2019-03-23T13:42:56.525Z,56.90
2019-03-23T13:45:45.958Z,56.90
2019-03-23T13:48:16.618Z,57.30
2019-03-23T13:50:47.323Z,56.90
2019-03-23T13:53:18.022Z,57.00
2019-03-23T13:56:18.496Z,56.90
2019-03-23T13:58:49.955Z,57.00
2019-03-23T14:01:20.297Z,56.90
2019-03-23T14:03:50.632Z,57.30
2019-03-23T14:06:20.996Z,57.20
2019-03-23T14:08:51.260Z,57.00
2019-03-23T14:11:21.777Z,57.20
2019-03-23T14:13:52.041Z,57.20
2019-03-23T14:16:22.304Z,57.80
2019-03-23T14:18:52.573Z,57.40
2019-03-23T14:21:22.927Z,57.30
2019-03-23T14:23:55.132Z,57.30
2019-03-23T14:26:25.695Z,57.60
2019-03-23T14:28:55.980Z,58.10
2019-03-23T14:31:26.255Z,57.70
2019-03-23T14:33:56.611Z,58.20
2019-03-23T14:36:26.885Z,58.00
2019-03-23T14:38:57.139Z,57.90
2019-03-23T14:41:27.424Z,57.80
2019-03-23T14:43:57.676Z,58.00
2019-03-23T14:46:27.930Z,58.10
2019-03-23T14:49:01.633Z,58.20
2019-03-23T14:51:30.231Z,58.20
2019-03-23T14:54:00.593Z,58.20
2019-03-23T14:56:31.808Z,58.10
2019-03-23T14:59:02.378Z,58.10
2019-03-23T15:01:32.722Z,58.00
2019-03-23T15:04:03.001Z,58.30
2019-03-23T15:06:33.267Z,58.60
2019-03-23T15:09:05.447Z,59.00
2019-03-23T15:11:35.863Z,59.60
2019-03-23T15:14:06.289Z,59.80
2019-03-23T15:16:37.543Z,60.30
2019-03-23T15:19:07.874Z,60.80
2019-03-23T15:21:38.168Z,61.10
2019-03-23T15:24:08.431Z,61.10
2019-03-23T15:26:38.705Z,62.50
2019-03-23T15:29:08.973Z,61.60
2019-03-23T15:31:39.325Z,61.40
2019-03-23T15:34:10.396Z,61.50
2019-03-23T15:36:40.715Z,61.30
2019-03-23T15:39:10.960Z,61.60
2019-03-23T15:41:41.306Z,61.90
2019-03-23T15:44:11.568Z,62.20
2019-03-23T15:46:41.826Z,61.80
2019-03-23T15:49:13.168Z,62.20
2019-03-23T15:51:43.711Z,62.60
2019-03-23T15:54:14.195Z,62.60
2019-03-23T15:56:44.642Z,62.70
2019-03-23T15:59:14.908Z,62.90
2019-03-23T16:01:45.168Z,63.30
2019-03-23T16:04:15.444Z,63.60
2019-03-23T16:06:45.704Z,64.00
2019-03-23T16:09:15.973Z,64.20
2019-03-23T16:11:46.263Z,64.40
2019-03-23T16:14:16.515Z,64.60
2019-03-23T16:16:46.930Z,64.80
2019-03-23T16:19:17.315Z,65.00
2019-03-23T16:21:47.591Z,65.20
2019-03-23T16:24:17.868Z,65.60
2019-03-23T16:26:48.155Z,65.70
2019-03-23T16:29:18.472Z,65.70
2019-03-23T16:31:48.890Z,65.90
2019-03-23T16:34:19.147Z,66.10
2019-03-23T16:36:49.443Z,66.40
2019-03-23T16:39:19.779Z,66.60
2019-03-23T16:41:50.132Z,66.60
2019-03-23T16:44:20.404Z,66.80
2019-03-23T16:46:50.750Z,66.70
2019-03-23T16:49:21.032Z,66.70
2019-03-23T16:51:51.404Z,66.90
2019-03-23T16:54:21.720Z,66.90
2019-03-23T16:56:52.113Z,66.90
2019-03-23T16:59:22.392Z,67.00
2019-03-23T17:01:52.708Z,67.00
2019-03-23T17:04:23.108Z,67.20
2019-03-23T17:06:53.351Z,67.20
2019-03-23T17:09:23.702Z,67.20
2019-03-23T17:11:53.988Z,67.20
2019-03-23T17:14:24.236Z,66.90
2019-03-23T17:16:54.603Z,66.90
2019-03-23T17:19:24.843Z,66.80
2019-03-23T17:21:55.119Z,66.60
2019-03-23T17:24:25.407Z,65.80
2019-03-23T17:26:55.745Z,65.90
2019-03-23T17:29:26.020Z,66.10
2019-03-23T17:31:56.323Z,66.00
2019-03-23T17:34:26.599Z,66.00
2019-03-23T17:36:57.222Z,65.70
2019-03-23T17:39:27.467Z,65.80
2019-03-23T17:41:57.797Z,65.70
2019-03-23T17:44:29.335Z,65.70
2019-03-23T17:46:59.675Z,65.90
2019-03-23T17:49:31.112Z,65.80
2019-03-23T17:52:01.464Z,66.10
2019-03-23T17:54:32.084Z,65.90
2019-03-23T17:57:03.578Z,66.10
2019-03-23T17:59:33.843Z,66.00
2019-03-23T18:02:04.275Z,66.00
2019-03-23T18:04:34.523Z,65.80
2019-03-23T18:07:04.876Z,65.80
2019-03-23T18:09:35.156Z,66.00
2019-03-23T18:12:05.563Z,65.80
2019-03-23T18:14:35.847Z,65.80
2019-03-23T18:17:06.184Z,65.50
2019-03-23T18:19:36.483Z,65.70
2019-03-23T18:22:06.908Z,65.50
2019-03-23T18:24:37.232Z,65.30
2019-03-23T18:27:07.648Z,65.20
2019-03-23T18:29:37.912Z,65.30
2019-03-23T18:32:08.391Z,65.30
2019-03-23T18:34:38.719Z,65.10
2019-03-23T18:37:09.035Z,65.20
2019-03-23T18:39:39.287Z,65.30
2019-03-23T18:42:09.644Z,65.50
2019-03-23T18:44:39.939Z,65.50
2019-03-23T18:47:10.192Z,65.50
2019-03-23T18:49:40.534Z,65.40
2019-03-23T18:52:11.783Z,65.70
2019-03-23T18:54:42.184Z,65.60
2019-03-23T18:57:12.522Z,65.60
2019-03-23T18:59:42.901Z,65.80
2019-03-23T19:02:13.323Z,65.60
2019-03-23T19:04:43.715Z,65.70
2019-03-23T19:07:14.084Z,65.90
2019-03-23T19:09:44.395Z,66.00
2019-03-23T19:12:15.027Z,66.10
2019-03-23T19:14:45.303Z,66.10
2019-03-23T19:17:15.680Z,66.10
2019-03-23T19:19:45.939Z,66.10
2019-03-23T19:22:16.195Z,66.00
2019-03-23T19:24:46.555Z,66.10
2019-03-23T19:27:16.900Z,66.30
2019-03-23T19:29:47.282Z,66.40
2019-03-23T19:32:17.627Z,66.50
2019-03-23T19:34:47.872Z,66.50
2019-03-23T19:37:18.235Z,66.60
2019-03-23T19:39:48.563Z,66.50
2019-03-23T19:42:18.968Z,66.60
2019-03-23T19:44:49.242Z,66.70
2019-03-23T19:47:19.827Z,66.60
2019-03-23T19:49:50.061Z,66.70
2019-03-23T19:52:20.387Z,66.90
2019-03-23T19:54:51.891Z,66.80
2019-03-23T19:57:24.423Z,67.20
2019-03-23T19:59:54.683Z,67.20
2019-03-23T20:02:25.018Z,67.30
2019-03-23T20:04:55.287Z,67.30
2019-03-23T20:07:32.990Z,67.50
2019-03-23T20:09:57.534Z,67.80
2019-03-23T20:12:27.879Z,68.00
2019-03-23T20:14:58.512Z,67.90
2019-03-23T20:17:28.801Z,67.90
2019-03-23T20:19:59.049Z,67.80
2019-03-23T20:22:29.361Z,67.60
2019-03-23T20:24:59.612Z,67.50
2019-03-23T20:27:29.883Z,67.20
2019-03-23T20:30:00.354Z,66.80
2019-03-23T20:32:32.373Z,66.40
2019-03-23T20:35:02.637Z,66.20
2019-03-23T20:37:33.519Z,66.00
2019-03-23T20:40:04.219Z,65.70
2019-03-23T20:42:35.789Z,65.60
2019-03-23T20:45:07.151Z,65.30
2019-03-23T20:47:39.656Z,65.20
2019-03-23T20:50:11.171Z,65.10
2019-03-23T20:52:42.754Z,65.10
2019-03-23T20:55:24.668Z,65.20
2019-03-23T20:57:55.760Z,65.20
2019-03-23T21:00:26.355Z,65.30
2019-03-23T21:02:56.683Z,65.30
2019-03-23T21:05:33.811Z,65.50
2019-03-23T21:07:59.079Z,65.70
2019-03-23T21:10:29.352Z,65.60
2019-03-23T21:12:59.686Z,65.60
2019-03-23T21:15:30.109Z,65.90
2019-03-23T21:18:02.910Z,65.80
2019-03-23T21:20:33.696Z,65.90
2019-03-23T21:23:05.206Z,65.90
2019-03-23T21:25:35.530Z,65.90
2019-03-23T21:28:05.960Z,66.00
2019-03-23T21:30:36.289Z,66.00
2019-03-23T21:33:06.696Z,66.00
2019-03-23T21:35:36.971Z,66.00
2019-03-23T21:38:07.241Z,66.10
2019-03-23T21:40:37.663Z,66.10
2019-03-23T21:43:07.948Z,66.20
2019-03-23T21:45:38.283Z,66.30
2019-03-23T21:48:08.642Z,66.50
2019-03-23T21:50:47.004Z,66.40
2019-03-23T21:53:10.948Z,66.40
2019-03-23T21:55:41.315Z,66.60
2019-03-23T21:58:11.603Z,66.60
2019-03-23T22:00:41.869Z,66.60
2019-03-23T22:03:12.277Z,66.60
2019-03-23T22:05:42.551Z,66.80
2019-03-23T22:08:12.896Z,66.60
2019-03-23T22:10:43.242Z,66.70
2019-03-23T22:13:13.596Z,66.90
2019-03-23T22:15:44.283Z,66.80
2019-03-23T22:18:14.543Z,66.90
2019-03-23T22:20:44.876Z,67.00
2019-03-23T22:23:15.130Z,67.10
2019-03-23T22:25:45.544Z,67.10
2019-03-23T22:28:15.871Z,67.10
2019-03-23T22:30:46.127Z,67.20
2019-03-23T22:33:16.470Z,67.20
2019-03-23T22:35:46.719Z,67.20
2019-03-23T22:38:16.999Z,67.10
2019-03-23T22:40:48.797Z,67.20
2019-03-23T22:43:19.144Z,67.30
2019-03-23T22:45:50.366Z,67.30
2019-03-23T22:48:20.612Z,67.50
2019-03-23T22:50:51.368Z,67.50
2019-03-23T22:53:21.996Z,67.80
2019-03-23T22:55:52.572Z,67.70
2019-03-23T22:58:22.835Z,67.90
2019-03-23T23:00:54.623Z,68.00
2019-03-23T23:03:25.038Z,68.00
2019-03-23T23:05:55.431Z,68.10
2019-03-23T23:08:25.804Z,68.10
2019-03-23T23:10:56.059Z,68.10
2019-03-23T23:13:26.395Z,68.20
2019-03-23T23:15:56.759Z,69.20
2019-03-23T23:18:27.107Z,68.50
2019-03-23T23:20:57.455Z,68.50
2019-03-23T23:23:27.855Z,68.50
2019-03-23T23:25:58.184Z,68.80
2019-03-23T23:28:28.538Z,68.70
2019-03-23T23:30:58.860Z,69.10
2019-03-23T23:33:29.486Z,68.90
2019-03-23T23:35:59.822Z,68.90
2019-03-23T23:38:30.095Z,68.90
2019-03-23T23:41:00.336Z,68.90
2019-03-23T23:43:30.597Z,69.00
2019-03-23T23:46:00.951Z,69.10
2019-03-23T23:48:31.203Z,69.20
2019-03-23T23:51:01.607Z,69.30
2019-03-23T23:53:31.883Z,69.30
2019-03-23T23:56:03.271Z,69.30
2019-03-23T23:58:33.580Z,69.40
